sensor_id;sensor_type;location;lat;lon;timestamp;pressure;altitude;pressure_sealevel;temperature;humidity
32933;BME280;19444;50.518;10.870;2023-07-31T00:01:53;96430.91;;;12.03;100.00
32933;BME280;19444;50.518;10.870;2023-07-31T00:04:50;96427.78;;;12.01;100.00
32933;BME280;19444;50.518;10.870;2023-07-31T00:07:47;96414.00;;;11.59;100.00
32933;BME280;19444;50.518;10.870;2023-07-31T00:10:44;96421.59;;;12.00;100.00
32933;BME280;19444;50.518;10.870;2023-07-31T00:13:41;96415.09;;;12.27;100.00
32933;BME280;19444;50.518;10.870;2023-07-31T00:16:38;96411.09;;;12.33;100.00
32933;BME280;19444;50.518;10.870;2023-07-31T00:19:35;96410.88;;;12.00;100.00
32933;BME280;19444;50.518;10.870;2023-07-31T00:22:32;96405.91;;;12.28;100.00
32933;BME280;19444;50.518;10.870;2023-07-31T00:25:29;96404.50;;;12.22;100.00
32933;BME280;19444;50.518;10.870;2023-07-31T00:28:26;96402.28;;;12.24;100.00
32933;BME280;19444;50.518;10.870;2023-07-31T00:31:24;96398.47;;;12.25;100.00
32933;BME280;19444;50.518;10.870;2023-07-31T00:34:21;96402.16;;;12.12;100.00
32933;BME280;19444;50.518;10.870;2023-07-31T00:37:18;96397.22;;;12.22;100.00
32933;BME280;19444;50.518;10.870;2023-07-31T00:40:15;96388.19;;;12.36;100.00
32933;BME280;19444;50.518;10.870;2023-07-31T00:43:12;96392.38;;;11.99;100.00
32933;BME280;19444;50.518;10.870;2023-07-31T00:46:09;96399.72;;;12.36;100.00
32933;BME280;19444;50.518;10.870;2023-07-31T00:49:06;96399.53;;;12.41;100.00
32933;BME280;19444;50.518;10.870;2023-07-31T00:52:04;96388.53;;;12.26;100.00
32933;BME280;19444;50.518;10.870;2023-07-31T00:55:02;96383.47;;;12.24;100.00
32933;BME280;19444;50.518;10.870;2023-07-31T00:57:59;96375.88;;;12.35;100.00
32933;BME280;19444;50.518;10.870;2023-07-31T01:00:56;96380.00;;;12.62;100.00
32933;BME280;19444;50.518;10.870;2023-07-31T01:03:53;96375.81;;;12.43;100.00
32933;BME280;19444;50.518;10.870;2023-07-31T01:07:12;96369.91;;;12.20;100.00
32933;BME280;19444;50.518;10.870;2023-07-31T01:10:39;96370.09;;;12.53;100.00
32933;BME280;19444;50.518;10.870;2023-07-31T01:13:38;96373.56;;;12.54;100.00
32933;BME280;19444;50.518;10.870;2023-07-31T01:16:36;96373.72;;;12.58;100.00
32933;BME280;19444;50.518;10.870;2023-07-31T01:19:33;96361.25;;;12.53;100.00
32933;BME280;19444;50.518;10.870;2023-07-31T01:23:08;96359.44;;;12.66;100.00
32933;BME280;19444;50.518;10.870;2023-07-31T01:26:16;96343.25;;;12.74;100.00
32933;BME280;19444;50.518;10.870;2023-07-31T01:29:59;96348.66;;;12.74;100.00
32933;BME280;19444;50.518;10.870;2023-07-31T01:32:57;96344.94;;;12.58;100.00
32933;BME280;19444;50.518;10.870;2023-07-31T01:35:55;96342.44;;;12.82;100.00
32933;BME280;19444;50.518;10.870;2023-07-31T01:39:00;96346.41;;;12.76;100.00
32933;BME280;19444;50.518;10.870;2023-07-31T01:41:57;96349.38;;;12.84;100.00
32933;BME280;19444;50.518;10.870;2023-07-31T01:44:54;96347.56;;;12.67;100.00
32933;BME280;19444;50.518;10.870;2023-07-31T01:47:51;96341.75;;;12.65;100.00
32933;BME280;19444;50.518;10.870;2023-07-31T01:50:48;96340.09;;;12.43;100.00
32933;BME280;19444;50.518;10.870;2023-07-31T01:53:45;96341.91;;;12.60;100.00
32933;BME280;19444;50.518;10.870;2023-07-31T01:56:41;96332.59;;;12.57;100.00
32933;BME280;19444;50.518;10.870;2023-07-31T01:59:39;96329.22;;;12.69;100.00
32933;BME280;19444;50.518;10.870;2023-07-31T02:02:36;96334.16;;;12.58;100.00
32933;BME280;19444;50.518;10.870;2023-07-31T02:05:33;96327.06;;;12.62;100.00
32933;BME280;19444;50.518;10.870;2023-07-31T02:08:30;96323.03;;;12.68;100.00
32933;BME280;19444;50.518;10.870;2023-07-31T02:11:27;96320.34;;;12.68;100.00
32933;BME280;19444;50.518;10.870;2023-07-31T02:14:23;96323.00;;;12.47;100.00
32933;BME280;19444;50.518;10.870;2023-07-31T02:17:21;96324.22;;;12.59;100.00
32933;BME280;19444;50.518;10.870;2023-07-31T02:20:18;96313.41;;;12.67;100.00
32933;BME280;19444;50.518;10.870;2023-07-31T02:23:15;96316.34;;;12.53;100.00
32933;BME280;19444;50.518;10.870;2023-07-31T02:26:12;96317.38;;;12.32;100.00
32933;BME280;19444;50.518;10.870;2023-07-31T02:29:09;96316.59;;;12.61;100.00
32933;BME280;19444;50.518;10.870;2023-07-31T02:32:06;96298.97;;;12.42;100.00
32933;BME280;19444;50.518;10.870;2023-07-31T02:35:03;96300.41;;;12.69;100.00
32933;BME280;19444;50.518;10.870;2023-07-31T02:38:00;96304.94;;;12.57;100.00
32933;BME280;19444;50.518;10.870;2023-07-31T02:40:57;96300.97;;;12.63;100.00
32933;BME280;19444;50.518;10.870;2023-07-31T02:43:54;96300.72;;;12.47;100.00
32933;BME280;19444;50.518;10.870;2023-07-31T02:46:51;96307.22;;;12.46;100.00
32933;BME280;19444;50.518;10.870;2023-07-31T02:49:48;96301.13;;;12.58;100.00
32933;BME280;19444;50.518;10.870;2023-07-31T02:52:45;96299.56;;;12.57;100.00
32933;BME280;19444;50.518;10.870;2023-07-31T02:55:42;96299.09;;;12.55;100.00
32933;BME280;19444;50.518;10.870;2023-07-31T02:58:39;96290.00;;;12.68;100.00
32933;BME280;19444;50.518;10.870;2023-07-31T03:01:36;96291.94;;;12.59;100.00
32933;BME280;19444;50.518;10.870;2023-07-31T03:04:33;96293.00;;;12.66;100.00
32933;BME280;19444;50.518;10.870;2023-07-31T03:07:30;96299.97;;;12.67;100.00
32933;BME280;19444;50.518;10.870;2023-07-31T03:10:27;96294.47;;;12.85;100.00
32933;BME280;19444;50.518;10.870;2023-07-31T03:13:24;96296.00;;;12.94;100.00
32933;BME280;19444;50.518;10.870;2023-07-31T03:16:20;96297.97;;;12.85;100.00
32933;BME280;19444;50.518;10.870;2023-07-31T03:19:17;96305.13;;;12.81;100.00
32933;BME280;19444;50.518;10.870;2023-07-31T03:22:14;96295.22;;;12.94;100.00
32933;BME280;19444;50.518;10.870;2023-07-31T03:25:11;96299.81;;;12.93;100.00
32933;BME280;19444;50.518;10.870;2023-07-31T03:28:09;96290.81;;;12.89;100.00
32933;BME280;19444;50.518;10.870;2023-07-31T03:31:06;96292.41;;;12.61;100.00
32933;BME280;19444;50.518;10.870;2023-07-31T03:34:05;96300.19;;;12.83;100.00
32933;BME280;19444;50.518;10.870;2023-07-31T03:37:02;96289.16;;;12.97;100.00
32933;BME280;19444;50.518;10.870;2023-07-31T03:39:58;96291.44;;;12.65;100.00
32933;BME280;19444;50.518;10.870;2023-07-31T03:42:55;96289.81;;;12.73;100.00
32933;BME280;19444;50.518;10.870;2023-07-31T03:45:52;96296.81;;;12.65;100.00
32933;BME280;19444;50.518;10.870;2023-07-31T03:48:50;96286.47;;;12.76;100.00
32933;BME280;19444;50.518;10.870;2023-07-31T03:51:47;96285.25;;;12.94;100.00
32933;BME280;19444;50.518;10.870;2023-07-31T03:54:44;96275.78;;;12.67;100.00
32933;BME280;19444;50.518;10.870;2023-07-31T03:57:44;96279.91;;;12.86;100.00
32933;BME280;19444;50.518;10.870;2023-07-31T04:00:41;96281.44;;;12.45;100.00
32933;BME280;19444;50.518;10.870;2023-07-31T04:03:38;96278.34;;;12.64;100.00
32933;BME280;19444;50.518;10.870;2023-07-31T04:06:34;96279.63;;;12.58;100.00
32933;BME280;19444;50.518;10.870;2023-07-31T04:09:31;96275.03;;;12.58;100.00
32933;BME280;19444;50.518;10.870;2023-07-31T04:12:28;96278.13;;;12.69;100.00
32933;BME280;19444;50.518;10.870;2023-07-31T04:15:25;96280.03;;;12.68;100.00
32933;BME280;19444;50.518;10.870;2023-07-31T04:18:24;96284.56;;;12.76;100.00
32933;BME280;19444;50.518;10.870;2023-07-31T04:21:21;96273.69;;;12.94;100.00
32933;BME280;19444;50.518;10.870;2023-07-31T04:24:18;96268.16;;;12.69;100.00
32933;BME280;19444;50.518;10.870;2023-07-31T04:27:21;96275.44;;;12.69;100.00
32933;BME280;19444;50.518;10.870;2023-07-31T04:30:17;96269.16;;;12.86;100.00
32933;BME280;19444;50.518;10.870;2023-07-31T04:33:15;96271.28;;;13.01;100.00
32933;BME280;19444;50.518;10.870;2023-07-31T04:36:11;96268.31;;;12.94;100.00
32933;BME280;19444;50.518;10.870;2023-07-31T04:39:09;96273.69;;;12.94;100.00
32933;BME280;19444;50.518;10.870;2023-07-31T04:42:06;96275.59;;;12.93;100.00
32933;BME280;19444;50.518;10.870;2023-07-31T04:45:03;96262.09;;;13.02;100.00
32933;BME280;19444;50.518;10.870;2023-07-31T04:48:00;96268.84;;;12.87;100.00
32933;BME280;19444;50.518;10.870;2023-07-31T04:50:57;96264.00;;;13.01;100.00
32933;BME280;19444;50.518;10.870;2023-07-31T04:53:54;96272.34;;;13.08;100.00
32933;BME280;19444;50.518;10.870;2023-07-31T04:56:51;96269.75;;;12.91;100.00
32933;BME280;19444;50.518;10.870;2023-07-31T04:59:49;96268.56;;;12.80;100.00
32933;BME280;19444;50.518;10.870;2023-07-31T05:02:47;96258.06;;;12.87;100.00
32933;BME280;19444;50.518;10.870;2023-07-31T05:05:44;96254.09;;;12.93;100.00
32933;BME280;19444;50.518;10.870;2023-07-31T05:08:41;96253.34;;;13.05;100.00
32933;BME280;19444;50.518;10.870;2023-07-31T05:11:38;96254.22;;;13.18;100.00
32933;BME280;19444;50.518;10.870;2023-07-31T05:14:37;96265.97;;;12.92;100.00
32933;BME280;19444;50.518;10.870;2023-07-31T05:17:33;96256.94;;;12.88;100.00
32933;BME280;19444;50.518;10.870;2023-07-31T05:20:30;96260.81;;;12.78;100.00
32933;BME280;19444;50.518;10.870;2023-07-31T05:23:27;96257.69;;;12.97;100.00
32933;BME280;19444;50.518;10.870;2023-07-31T05:26:24;96242.53;;;13.14;100.00
32933;BME280;19444;50.518;10.870;2023-07-31T05:29:21;96241.94;;;13.08;100.00
32933;BME280;19444;50.518;10.870;2023-07-31T05:32:18;96246.66;;;13.11;100.00
32933;BME280;19444;50.518;10.870;2023-07-31T05:35:15;96249.47;;;13.15;100.00
32933;BME280;19444;50.518;10.870;2023-07-31T05:38:12;96245.94;;;13.02;100.00
32933;BME280;19444;50.518;10.870;2023-07-31T05:41:09;96256.03;;;13.05;100.00
32933;BME280;19444;50.518;10.870;2023-07-31T05:44:06;96252.31;;;13.18;100.00
32933;BME280;19444;50.518;10.870;2023-07-31T05:47:03;96241.28;;;13.32;100.00
32933;BME280;19444;50.518;10.870;2023-07-31T05:50:01;96243.75;;;13.16;100.00
32933;BME280;19444;50.518;10.870;2023-07-31T05:52:58;96234.59;;;13.50;100.00
32933;BME280;19444;50.518;10.870;2023-07-31T05:55:55;96231.03;;;13.46;100.00
32933;BME280;19444;50.518;10.870;2023-07-31T05:58:52;96220.59;;;13.45;100.00
32933;BME280;19444;50.518;10.870;2023-07-31T06:01:49;96216.03;;;13.70;100.00
32933;BME280;19444;50.518;10.870;2023-07-31T06:04:46;96213.56;;;13.77;100.00
32933;BME280;19444;50.518;10.870;2023-07-31T06:07:43;96226.78;;;13.70;100.00
32933;BME280;19444;50.518;10.870;2023-07-31T06:10:40;96220.19;;;13.67;100.00
32933;BME280;19444;50.518;10.870;2023-07-31T06:13:37;96224.34;;;13.77;100.00
32933;BME280;19444;50.518;10.870;2023-07-31T06:16:34;96229.66;;;13.52;100.00
32933;BME280;19444;50.518;10.870;2023-07-31T06:19:31;96234.19;;;13.60;100.00
32933;BME280;19444;50.518;10.870;2023-07-31T06:22:28;96234.53;;;13.59;100.00
32933;BME280;19444;50.518;10.870;2023-07-31T06:25:25;96235.97;;;13.56;100.00
32933;BME280;19444;50.518;10.870;2023-07-31T06:28:31;96229.91;;;13.59;100.00
32933;BME280;19444;50.518;10.870;2023-07-31T06:31:28;96223.31;;;13.57;100.00
32933;BME280;19444;50.518;10.870;2023-07-31T06:34:25;96218.50;;;13.75;100.00
32933;BME280;19444;50.518;10.870;2023-07-31T06:37:22;96217.59;;;13.71;100.00
32933;BME280;19444;50.518;10.870;2023-07-31T06:40:19;96228.50;;;13.86;100.00
32933;BME280;19444;50.518;10.870;2023-07-31T06:43:16;96223.91;;;13.87;100.00
32933;BME280;19444;50.518;10.870;2023-07-31T06:46:13;96217.19;;;13.81;100.00
32933;BME280;19444;50.518;10.870;2023-07-31T06:49:10;96224.16;;;13.94;100.00
32933;BME280;19444;50.518;10.870;2023-07-31T06:52:07;96236.25;;;13.88;100.00
32933;BME280;19444;50.518;10.870;2023-07-31T06:55:18;96222.34;;;13.98;100.00
32933;BME280;19444;50.518;10.870;2023-07-31T06:58:15;96224.72;;;14.00;100.00
32933;BME280;19444;50.518;10.870;2023-07-31T07:01:12;96234.81;;;14.03;100.00
32933;BME280;19444;50.518;10.870;2023-07-31T07:04:09;96230.78;;;13.97;100.00
32933;BME280;19444;50.518;10.870;2023-07-31T07:07:06;96232.66;;;13.84;100.00
32933;BME280;19444;50.518;10.870;2023-07-31T07:10:04;96231.13;;;14.19;100.00
32933;BME280;19444;50.518;10.870;2023-07-31T07:13:01;96230.44;;;14.22;100.00
32933;BME280;19444;50.518;10.870;2023-07-31T07:15:58;96229.88;;;14.17;100.00
32933;BME280;19444;50.518;10.870;2023-07-31T07:18:55;96231.69;;;14.01;100.00
32933;BME280;19444;50.518;10.870;2023-07-31T07:22:00;96232.56;;;14.05;100.00
32933;BME280;19444;50.518;10.870;2023-07-31T07:24:58;96234.28;;;14.09;100.00
32933;BME280;19444;50.518;10.870;2023-07-31T07:27:55;96240.22;;;14.03;100.00
32933;BME280;19444;50.518;10.870;2023-07-31T07:30:53;96248.75;;;14.05;100.00
32933;BME280;19444;50.518;10.870;2023-07-31T07:33:50;96247.06;;;14.00;100.00
32933;BME280;19444;50.518;10.870;2023-07-31T07:36:47;96244.59;;;14.07;100.00
32933;BME280;19444;50.518;10.870;2023-07-31T07:39:44;96235.81;;;13.98;100.00
32933;BME280;19444;50.518;10.870;2023-07-31T07:42:41;96243.56;;;13.87;100.00
32933;BME280;19444;50.518;10.870;2023-07-31T07:45:38;96240.75;;;13.96;100.00
32933;BME280;19444;50.518;10.870;2023-07-31T07:48:35;96241.19;;;13.98;100.00
32933;BME280;19444;50.518;10.870;2023-07-31T07:51:32;96224.84;;;13.91;100.00
32933;BME280;19444;50.518;10.870;2023-07-31T07:54:30;96216.84;;;14.07;100.00
32933;BME280;19444;50.518;10.870;2023-07-31T07:57:27;96216.28;;;14.13;100.00
32933;BME280;19444;50.518;10.870;2023-07-31T08:00:25;96221.47;;;14.18;100.00
32933;BME280;19444;50.518;10.870;2023-07-31T08:03:22;96216.75;;;14.15;100.00
32933;BME280;19444;50.518;10.870;2023-07-31T08:06:19;96220.56;;;14.02;100.00
32933;BME280;19444;50.518;10.870;2023-07-31T08:09:16;96222.25;;;14.19;100.00
32933;BME280;19444;50.518;10.870;2023-07-31T08:12:13;96221.38;;;14.27;100.00
32933;BME280;19444;50.518;10.870;2023-07-31T08:15:10;96233.59;;;14.24;100.00
32933;BME280;19444;50.518;10.870;2023-07-31T08:18:07;96235.16;;;14.26;100.00
32933;BME280;19444;50.518;10.870;2023-07-31T08:21:04;96227.41;;;14.24;100.00
32933;BME280;19444;50.518;10.870;2023-07-31T08:24:01;96228.44;;;14.32;100.00
32933;BME280;19444;50.518;10.870;2023-07-31T08:26:58;96222.25;;;14.31;100.00
32933;BME280;19444;50.518;10.870;2023-07-31T08:29:55;96232.13;;;14.39;100.00
32933;BME280;19444;50.518;10.870;2023-07-31T08:32:52;96226.94;;;14.34;100.00
32933;BME280;19444;50.518;10.870;2023-07-31T08:35:49;96222.59;;;14.30;100.00
32933;BME280;19444;50.518;10.870;2023-07-31T08:38:46;96225.72;;;14.44;100.00
32933;BME280;19444;50.518;10.870;2023-07-31T08:41:43;96219.75;;;14.26;100.00
32933;BME280;19444;50.518;10.870;2023-07-31T08:44:41;96215.28;;;14.30;100.00
32933;BME280;19444;50.518;10.870;2023-07-31T08:47:41;96214.03;;;14.40;100.00
32933;BME280;19444;50.518;10.870;2023-07-31T08:50:38;96215.63;;;14.41;100.00
32933;BME280;19444;50.518;10.870;2023-07-31T08:53:35;96211.00;;;14.54;100.00
32933;BME280;19444;50.518;10.870;2023-07-31T08:56:32;96207.53;;;14.65;100.00
32933;BME280;19444;50.518;10.870;2023-07-31T08:59:31;96211.34;;;14.52;100.00
32933;BME280;19444;50.518;10.870;2023-07-31T09:03:08;96207.84;;;14.76;100.00
32933;BME280;19444;50.518;10.870;2023-07-31T09:06:07;96207.63;;;14.69;100.00
32933;BME280;19444;50.518;10.870;2023-07-31T09:09:04;96202.00;;;14.74;100.00
32933;BME280;19444;50.518;10.870;2023-07-31T09:12:01;96215.38;;;14.70;100.00
32933;BME280;19444;50.518;10.870;2023-07-31T09:14:58;96217.84;;;14.75;100.00
32933;BME280;19444;50.518;10.870;2023-07-31T09:18:00;96218.97;;;14.74;100.00
32933;BME280;19444;50.518;10.870;2023-07-31T09:21:05;96225.50;;;14.73;100.00
32933;BME280;19444;50.518;10.870;2023-07-31T09:24:02;96220.19;;;14.77;100.00
32933;BME280;19444;50.518;10.870;2023-07-31T09:27:01;96222.56;;;14.66;100.00
32933;BME280;19444;50.518;10.870;2023-07-31T09:30:01;96220.22;;;14.65;100.00
32933;BME280;19444;50.518;10.870;2023-07-31T09:33:09;96215.41;;;14.58;100.00
32933;BME280;19444;50.518;10.870;2023-07-31T09:36:06;96205.00;;;14.85;100.00
32933;BME280;19444;50.518;10.870;2023-07-31T09:39:03;96198.69;;;14.93;100.00
32933;BME280;19444;50.518;10.870;2023-07-31T09:42:00;96205.16;;;15.04;100.00
32933;BME280;19444;50.518;10.870;2023-07-31T09:45:07;96184.56;;;15.12;100.00
32933;BME280;19444;50.518;10.870;2023-07-31T09:48:24;96169.28;;;15.31;100.00
32933;BME280;19444;50.518;10.870;2023-07-31T09:51:27;96168.84;;;15.45;100.00
32933;BME280;19444;50.518;10.870;2023-07-31T09:54:25;96158.03;;;15.73;100.00
32933;BME280;19444;50.518;10.870;2023-07-31T09:57:22;96146.69;;;15.68;100.00
32933;BME280;19444;50.518;10.870;2023-07-31T10:00:20;96144.34;;;15.82;100.00
32933;BME280;19444;50.518;10.870;2023-07-31T10:03:20;96134.47;;;15.89;100.00
32933;BME280;19444;50.518;10.870;2023-07-31T10:06:17;96133.75;;;16.08;100.00
32933;BME280;19444;50.518;10.870;2023-07-31T10:09:18;96127.44;;;16.55;100.00
32933;BME280;19444;50.518;10.870;2023-07-31T10:12:16;96134.69;;;16.51;100.00
32933;BME280;19444;50.518;10.870;2023-07-31T10:15:16;96129.41;;;16.74;100.00
32933;BME280;19444;50.518;10.870;2023-07-31T10:18:15;96121.66;;;16.92;100.00
32933;BME280;19444;50.518;10.870;2023-07-31T10:21:14;96117.34;;;17.10;100.00
32933;BME280;19444;50.518;10.870;2023-07-31T10:24:11;96110.75;;;17.30;100.00
32933;BME280;19444;50.518;10.870;2023-07-31T10:27:09;96102.25;;;17.55;100.00
32933;BME280;19444;50.518;10.870;2023-07-31T10:30:14;96099.22;;;17.56;100.00
32933;BME280;19444;50.518;10.870;2023-07-31T10:33:16;96099.78;;;17.46;100.00
32933;BME280;19444;50.518;10.870;2023-07-31T10:36:18;96123.97;;;17.35;100.00
32933;BME280;19444;50.518;10.870;2023-07-31T10:39:36;96108.38;;;17.06;100.00
32933;BME280;19444;50.518;10.870;2023-07-31T10:45:42;96093.41;;;17.35;100.00
32933;BME280;19444;50.518;10.870;2023-07-31T10:48:41;96091.63;;;17.20;100.00
32933;BME280;19444;50.518;10.870;2023-07-31T10:51:40;96093.81;;;17.14;100.00
32933;BME280;19444;50.518;10.870;2023-07-31T10:54:38;96091.19;;;16.98;100.00
32933;BME280;19444;50.518;10.870;2023-07-31T10:57:35;96090.63;;;17.09;100.00
32933;BME280;19444;50.518;10.870;2023-07-31T11:00:33;96089.47;;;17.10;100.00
32933;BME280;19444;50.518;10.870;2023-07-31T11:06:59;96092.44;;;16.82;100.00
32933;BME280;19444;50.518;10.870;2023-07-31T11:09:57;96090.56;;;16.66;100.00
32933;BME280;19444;50.518;10.870;2023-07-31T11:12:54;96095.34;;;16.73;100.00
32933;BME280;19444;50.518;10.870;2023-07-31T11:15:51;96092.22;;;16.71;100.00
32933;BME280;19444;50.518;10.870;2023-07-31T11:18:49;96098.88;;;16.73;100.00
32933;BME280;19444;50.518;10.870;2023-07-31T11:21:48;96109.38;;;16.59;100.00
32933;BME280;19444;50.518;10.870;2023-07-31T11:24:45;96109.25;;;16.36;100.00
32933;BME280;19444;50.518;10.870;2023-07-31T11:27:42;96119.78;;;16.22;100.00
32933;BME280;19444;50.518;10.870;2023-07-31T11:30:43;96119.22;;;16.32;100.00
32933;BME280;19444;50.518;10.870;2023-07-31T11:33:40;96119.63;;;16.15;100.00
32933;BME280;19444;50.518;10.870;2023-07-31T11:36:37;96125.31;;;16.10;100.00
32933;BME280;19444;50.518;10.870;2023-07-31T11:39:35;96127.56;;;16.08;100.00
32933;BME280;19444;50.518;10.870;2023-07-31T11:42:32;96121.56;;;16.34;100.00
32933;BME280;19444;50.518;10.870;2023-07-31T11:45:30;96125.56;;;16.05;100.00
32933;BME280;19444;50.518;10.870;2023-07-31T11:48:29;96131.22;;;16.00;100.00
32933;BME280;19444;50.518;10.870;2023-07-31T11:51:27;96127.38;;;16.16;100.00
32933;BME280;19444;50.518;10.870;2023-07-31T11:54:26;96133.06;;;16.11;100.00
32933;BME280;19444;50.518;10.870;2023-07-31T11:57:23;96137.28;;;15.77;100.00
32933;BME280;19444;50.518;10.870;2023-07-31T12:00:21;96137.81;;;15.67;100.00
32933;BME280;19444;50.518;10.870;2023-07-31T12:03:19;96126.78;;;16.07;100.00
32933;BME280;19444;50.518;10.870;2023-07-31T12:06:17;96134.56;;;15.77;100.00
32933;BME280;19444;50.518;10.870;2023-07-31T12:09:16;96128.63;;;15.72;100.00
32933;BME280;19444;50.518;10.870;2023-07-31T12:12:20;96136.50;;;15.92;100.00
32933;BME280;19444;50.518;10.870;2023-07-31T12:15:18;96128.88;;;15.98;100.00
32933;BME280;19444;50.518;10.870;2023-07-31T12:18:19;96116.75;;;16.08;100.00
32933;BME280;19444;50.518;10.870;2023-07-31T12:21:17;96119.03;;;16.06;100.00
32933;BME280;19444;50.518;10.870;2023-07-31T12:24:14;96120.09;;;15.70;100.00
32933;BME280;19444;50.518;10.870;2023-07-31T12:27:12;96116.81;;;15.76;100.00
32933;BME280;19444;50.518;10.870;2023-07-31T12:30:27;96113.50;;;15.67;100.00
32933;BME280;19444;50.518;10.870;2023-07-31T12:33:32;96115.41;;;15.67;100.00
32933;BME280;19444;50.518;10.870;2023-07-31T12:36:29;96093.50;;;15.87;100.00
32933;BME280;19444;50.518;10.870;2023-07-31T12:39:29;96091.50;;;16.00;100.00
32933;BME280;19444;50.518;10.870;2023-07-31T12:42:26;96085.41;;;15.87;100.00
32933;BME280;19444;50.518;10.870;2023-07-31T12:45:23;96090.66;;;15.64;100.00
32933;BME280;19444;50.518;10.870;2023-07-31T12:48:20;96079.50;;;15.82;100.00
32933;BME280;19444;50.518;10.870;2023-07-31T12:51:17;96074.28;;;15.73;100.00
32933;BME280;19444;50.518;10.870;2023-07-31T12:54:14;96065.31;;;16.04;100.00
32933;BME280;19444;50.518;10.870;2023-07-31T12:57:11;96056.72;;;16.18;100.00
32933;BME280;19444;50.518;10.870;2023-07-31T13:00:09;96077.03;;;15.92;100.00
32933;BME280;19444;50.518;10.870;2023-07-31T13:03:06;96053.38;;;16.25;100.00
32933;BME280;19444;50.518;10.870;2023-07-31T13:06:03;96041.88;;;16.28;100.00
32933;BME280;19444;50.518;10.870;2023-07-31T13:09:00;96039.88;;;16.44;100.00
32933;BME280;19444;50.518;10.870;2023-07-31T13:11:57;96031.56;;;16.72;100.00
32933;BME280;19444;50.518;10.870;2023-07-31T13:14:54;96031.63;;;16.75;100.00
32933;BME280;19444;50.518;10.870;2023-07-31T13:17:51;96038.53;;;16.73;100.00
32933;BME280;19444;50.518;10.870;2023-07-31T13:20:48;96027.00;;;16.76;100.00
32933;BME280;19444;50.518;10.870;2023-07-31T13:23:45;96020.69;;;16.68;100.00
32933;BME280;19444;50.518;10.870;2023-07-31T13:26:42;96022.00;;;16.59;100.00
32933;BME280;19444;50.518;10.870;2023-07-31T13:29:39;96016.09;;;16.53;100.00
32933;BME280;19444;50.518;10.870;2023-07-31T13:32:36;96016.09;;;16.72;100.00
32933;BME280;19444;50.518;10.870;2023-07-31T13:35:36;96004.50;;;16.72;100.00
32933;BME280;19444;50.518;10.870;2023-07-31T13:38:32;96005.72;;;16.74;100.00
32933;BME280;19444;50.518;10.870;2023-07-31T13:41:30;95998.16;;;16.64;100.00
32933;BME280;19444;50.518;10.870;2023-07-31T13:44:27;96002.06;;;16.67;100.00
32933;BME280;19444;50.518;10.870;2023-07-31T13:47:24;95999.66;;;16.62;100.00
32933;BME280;19444;50.518;10.870;2023-07-31T13:50:21;95986.84;;;16.78;100.00
32933;BME280;19444;50.518;10.870;2023-07-31T13:53:19;95970.59;;;16.78;100.00
32933;BME280;19444;50.518;10.870;2023-07-31T13:56:16;95973.16;;;16.71;100.00
32933;BME280;19444;50.518;10.870;2023-07-31T13:59:13;95975.28;;;16.62;100.00
32933;BME280;19444;50.518;10.870;2023-07-31T14:02:11;95966.13;;;16.66;100.00
32933;BME280;19444;50.518;10.870;2023-07-31T14:05:08;95977.81;;;16.51;100.00
32933;BME280;19444;50.518;10.870;2023-07-31T14:08:06;95966.75;;;16.60;100.00
32933;BME280;19444;50.518;10.870;2023-07-31T14:11:03;95969.00;;;16.73;100.00
32933;BME280;19444;50.518;10.870;2023-07-31T14:14:00;95973.72;;;16.61;100.00
32933;BME280;19444;50.518;10.870;2023-07-31T14:16:58;95979.88;;;16.58;100.00
32933;BME280;19444;50.518;10.870;2023-07-31T14:19:55;95976.66;;;16.52;100.00
32933;BME280;19444;50.518;10.870;2023-07-31T14:22:52;95972.53;;;16.77;100.00
32933;BME280;19444;50.518;10.870;2023-07-31T14:25:49;95963.84;;;16.68;100.00
32933;BME280;19444;50.518;10.870;2023-07-31T14:28:46;95966.75;;;16.60;100.00
32933;BME280;19444;50.518;10.870;2023-07-31T14:31:43;95973.59;;;16.73;100.00
32933;BME280;19444;50.518;10.870;2023-07-31T14:34:40;95969.41;;;16.75;100.00
32933;BME280;19444;50.518;10.870;2023-07-31T14:37:40;95986.69;;;16.52;100.00
32933;BME280;19444;50.518;10.870;2023-07-31T14:40:38;95979.50;;;16.59;100.00
32933;BME280;19444;50.518;10.870;2023-07-31T14:43:35;95988.25;;;16.53;100.00
32933;BME280;19444;50.518;10.870;2023-07-31T14:46:32;95978.41;;;16.41;100.00
32933;BME280;19444;50.518;10.870;2023-07-31T14:49:29;95981.47;;;16.39;100.00
32933;BME280;19444;50.518;10.870;2023-07-31T14:52:26;95972.34;;;16.47;100.00
32933;BME280;19444;50.518;10.870;2023-07-31T14:55:23;95972.78;;;16.30;100.00
32933;BME280;19444;50.518;10.870;2023-07-31T14:58:20;95969.91;;;16.42;100.00
32933;BME280;19444;50.518;10.870;2023-07-31T15:01:16;95966.50;;;16.45;100.00
32933;BME280;19444;50.518;10.870;2023-07-31T15:04:14;95947.28;;;16.50;100.00
32933;BME280;19444;50.518;10.870;2023-07-31T15:07:10;95955.41;;;16.31;100.00
32933;BME280;19444;50.518;10.870;2023-07-31T15:10:08;95948.03;;;16.28;100.00
32933;BME280;19444;50.518;10.870;2023-07-31T15:13:05;95925.81;;;16.61;100.00
32933;BME280;19444;50.518;10.870;2023-07-31T15:16:02;95921.47;;;16.76;100.00
32933;BME280;19444;50.518;10.870;2023-07-31T15:18:59;95925.81;;;16.61;100.00
32933;BME280;19444;50.518;10.870;2023-07-31T15:21:56;95932.22;;;16.72;100.00
32933;BME280;19444;50.518;10.870;2023-07-31T15:24:53;95940.06;;;16.58;100.00
32933;BME280;19444;50.518;10.870;2023-07-31T15:27:50;95924.63;;;16.59;100.00